createdAt,value
2017-08-10T00:00:10.044Z,5.80
2017-08-10T00:02:37.565Z,7.03
2017-08-10T00:05:05.110Z,6.90
2017-08-10T00:07:32.634Z,6.93
2017-08-10T00:10:00.157Z,7.50
2017-08-10T00:12:27.774Z,6.50
2017-08-10T00:14:55.341Z,7.40
2017-08-10T00:17:22.859Z,7.93
2017-08-10T00:19:50.397Z,7.10
2017-08-10T00:22:18.689Z,7.40
2017-08-10T00:24:46.995Z,7.60
2017-08-10T00:27:14.531Z,7.50
2017-08-10T00:29:42.115Z,6.97
2017-08-10T00:32:09.640Z,7.53
2017-08-10T00:34:37.951Z,7.33
2017-08-10T00:37:05.478Z,7.37
2017-08-10T00:39:33.892Z,7.33
2017-08-10T00:42:01.456Z,7.23
2017-08-10T00:44:29.110Z,8.67
2017-08-10T00:46:56.674Z,7.77
2017-08-10T00:49:24.221Z,7.33
2017-08-10T00:51:51.742Z,8.07
2017-08-10T00:54:20.108Z,7.23
2017-08-10T00:56:47.777Z,7.77
2017-08-10T00:59:16.109Z,8.30
2017-08-10T01:01:43.665Z,8.10
2017-08-10T01:04:11.214Z,8.07
2017-08-10T01:06:38.785Z,8.27
2017-08-10T01:09:06.345Z,8.20
2017-08-10T01:11:33.878Z,8.57
2017-08-10T01:14:01.402Z,8.90
2017-08-10T01:16:28.921Z,8.00
2017-08-10T01:18:56.459Z,6.80
2017-08-10T01:21:23.976Z,6.70
2017-08-10T01:23:51.605Z,7.03
2017-08-10T01:26:19.161Z,7.37
2017-08-10T01:28:46.683Z,6.93
2017-08-10T01:31:14.965Z,7.63
2017-08-10T01:33:42.663Z,6.90
2017-08-10T01:36:10.182Z,7.70
2017-08-10T01:38:38.469Z,8.47
2017-08-10T01:41:06.004Z,7.07
2017-08-10T01:43:33.527Z,8.57
2017-08-10T01:46:01.071Z,8.17
2017-08-10T01:48:28.635Z,9.50
2017-08-10T01:50:56.195Z,9.70
2017-08-10T01:53:23.722Z,10.20
2017-08-10T01:55:51.269Z,11.43
2017-08-10T01:58:19.585Z,12.17
2017-08-10T02:00:47.146Z,11.53
2017-08-10T02:03:14.690Z,10.10
2017-08-10T02:05:42.218Z,10.60
2017-08-10T02:08:10.515Z,10.90
2017-08-10T02:10:38.069Z,10.33
2017-08-10T02:13:06.361Z,11.00
2017-08-10T02:15:33.881Z,11.40
2017-08-10T02:18:01.426Z,10.87
2017-08-10T02:20:29.042Z,10.87
2017-08-10T02:22:56.617Z,9.93
2017-08-10T02:25:24.157Z,10.10
2017-08-10T02:27:51.739Z,10.37
2017-08-10T02:30:19.302Z,10.87
2017-08-10T02:32:46.856Z,10.80
2017-08-10T02:35:14.385Z,11.07
2017-08-10T02:37:41.981Z,9.00
2017-08-10T02:40:09.521Z,9.90
2017-08-10T02:42:37.192Z,9.87
2017-08-10T02:45:04.719Z,10.00
2017-08-10T02:47:32.362Z,10.43
2017-08-10T02:50:00.802Z,10.07
2017-08-10T02:52:28.339Z,9.43
2017-08-10T02:54:55.890Z,10.07
2017-08-10T02:57:23.414Z,9.00
2017-08-10T02:59:50.934Z,8.73
2017-08-10T03:02:18.488Z,8.90
2017-08-10T03:04:46.010Z,8.40
2017-08-10T03:07:14.297Z,8.80
2017-08-10T03:09:41.893Z,8.80
2017-08-10T03:12:09.445Z,8.33
2017-08-10T03:14:36.969Z,8.70
2017-08-10T03:17:05.279Z,8.60
2017-08-10T03:19:32.841Z,8.10
2017-08-10T03:22:00.409Z,7.40
2017-08-10T03:24:27.967Z,8.43
2017-08-10T03:26:55.624Z,8.33
2017-08-10T03:29:23.145Z,7.40
2017-08-10T03:31:51.451Z,8.20
2017-08-10T03:34:18.977Z,7.67
2017-08-10T03:36:47.263Z,7.40
2017-08-10T03:39:15.566Z,7.60
2017-08-10T03:41:43.231Z,7.50
2017-08-10T03:44:10.752Z,7.73
2017-08-10T03:46:39.382Z,7.20
2017-08-10T03:49:06.906Z,6.90
2017-08-10T03:51:35.325Z,6.53
2017-08-10T03:54:02.860Z,6.07
2017-08-10T03:56:30.438Z,6.73
2017-08-10T03:58:58.005Z,6.37
2017-08-10T04:01:25.542Z,7.40
2017-08-10T04:03:53.114Z,6.10
2017-08-10T04:06:20.686Z,6.10
2017-08-10T04:08:48.225Z,6.80
2017-08-10T04:11:15.755Z,6.33
2017-08-10T04:13:44.170Z,5.80
2017-08-10T04:16:11.711Z,6.80
2017-08-10T04:18:39.300Z,6.10
2017-08-10T04:21:06.841Z,5.90
2017-08-10T04:23:34.417Z,6.53
2017-08-10T04:26:01.977Z,6.40
2017-08-10T04:28:29.735Z,5.60
2017-08-10T04:30:57.396Z,6.33
2017-08-10T04:33:24.957Z,6.23
2017-08-10T04:35:52.486Z,6.63
2017-08-10T04:38:21.250Z,5.90
2017-08-10T04:40:48.900Z,5.83
2017-08-10T04:43:16.422Z,6.00
2017-08-10T04:45:43.958Z,5.23
2017-08-10T04:48:11.541Z,6.10
2017-08-10T04:50:39.102Z,6.10
2017-08-10T04:53:06.660Z,5.73
2017-08-10T04:55:34.186Z,6.10
2017-08-10T04:58:02.474Z,6.00
2017-08-10T05:00:30.022Z,5.97
2017-08-10T05:02:58.670Z,5.40
2017-08-10T05:05:26.304Z,5.20
2017-08-10T05:07:53.849Z,5.17
2017-08-10T05:10:21.441Z,5.57
2017-08-10T05:12:48.969Z,5.50
2017-08-10T05:15:16.542Z,6.17
2017-08-10T05:17:44.206Z,5.53
2017-08-10T05:20:11.729Z,6.10
2017-08-10T05:22:40.035Z,5.60
2017-08-10T05:25:07.629Z,6.00
2017-08-10T05:27:35.145Z,6.30
2017-08-10T05:30:02.677Z,6.47
2017-08-10T05:32:30.964Z,5.93
2017-08-10T05:34:59.270Z,6.60
2017-08-10T05:37:26.808Z,7.40
2017-08-10T05:39:54.337Z,6.40
2017-08-10T05:42:22.638Z,6.33
2017-08-10T05:44:50.192Z,6.53
2017-08-10T05:47:18.502Z,6.27
2017-08-10T05:49:46.074Z,6.33
2017-08-10T05:52:13.622Z,6.63
2017-08-10T05:54:41.198Z,6.70
2017-08-10T05:57:08.744Z,7.20
2017-08-10T05:59:36.416Z,7.50
2017-08-10T06:02:03.940Z,6.50
2017-08-10T06:04:31.465Z,7.33
2017-08-10T06:06:59.019Z,7.73
2017-08-10T06:09:26.542Z,7.13
2017-08-10T06:11:54.098Z,7.07
2017-08-10T06:14:21.634Z,6.80
2017-08-10T06:16:49.161Z,6.80
2017-08-10T06:19:17.594Z,7.93
2017-08-10T06:21:45.274Z,8.30
2017-08-10T06:24:12.793Z,9.03
2017-08-10T06:26:40.347Z,9.33
2017-08-10T06:29:07.934Z,9.30
2017-08-10T06:31:35.499Z,9.43
2017-08-10T06:34:03.059Z,10.50
2017-08-10T06:36:30.602Z,11.27
2017-08-10T06:38:58.139Z,10.23
2017-08-10T06:41:26.447Z,11.10
2017-08-10T06:43:54.005Z,10.33
2017-08-10T06:46:21.537Z,10.87
2017-08-10T06:48:49.064Z,11.80
2017-08-10T06:51:16.688Z,10.77
2017-08-10T06:53:44.216Z,10.77
2017-08-10T06:56:12.525Z,12.50
2017-08-10T06:58:40.080Z,11.20
2017-08-10T07:01:07.644Z,11.80
2017-08-10T07:03:35.177Z,12.30
2017-08-10T07:06:02.862Z,11.43
2017-08-10T07:08:30.390Z,12.00
2017-08-10T07:10:58.698Z,11.77
2017-08-10T07:13:26.245Z,10.40
2017-08-10T07:15:53.770Z,11.23
2017-08-10T07:18:22.074Z,10.10
2017-08-10T07:20:49.626Z,10.70
2017-08-10T07:23:17.145Z,10.13
2017-08-10T07:25:44.875Z,12.00
2017-08-10T07:28:12.442Z,11.53
2017-08-10T07:30:40.005Z,11.03
2017-08-10T07:33:07.534Z,11.77
2017-08-10T07:35:35.089Z,10.40
2017-08-10T07:38:02.640Z,11.90
2017-08-10T07:40:30.237Z,11.47
2017-08-10T07:42:57.785Z,12.90
2017-08-10T07:45:25.361Z,13.00
2017-08-10T07:47:52.882Z,13.20
2017-08-10T07:50:21.395Z,12.17
2017-08-10T07:52:49.057Z,12.60
2017-08-10T07:55:16.626Z,13.53
2017-08-10T07:57:44.174Z,14.60
2017-08-10T08:00:11.751Z,12.97
2017-08-10T08:02:39.278Z,12.83
2017-08-10T08:05:06.825Z,13.73
2017-08-10T08:07:34.362Z,13.53
2017-08-10T08:10:02.299Z,14.17
2017-08-10T08:12:29.850Z,13.40
2017-08-10T08:14:57.382Z,13.90
2017-08-10T08:17:24.908Z,15.33
2017-08-10T08:19:52.529Z,14.80
2017-08-10T08:22:20.061Z,14.07
2017-08-10T08:24:47.606Z,13.83
2017-08-10T08:27:16.038Z,12.50
2017-08-10T08:29:43.590Z,14.87
2017-08-10T08:32:11.155Z,12.83
2017-08-10T08:34:38.809Z,13.37
2017-08-10T08:37:06.419Z,13.10
2017-08-10T08:39:34.749Z,12.13
2017-08-10T08:42:02.300Z,13.30
2017-08-10T08:44:29.833Z,12.10
2017-08-10T08:46:57.421Z,11.73
2017-08-10T08:49:24.982Z,11.87
2017-08-10T08:51:52.521Z,12.40
2017-08-10T08:54:20.201Z,12.83
2017-08-10T08:56:48.093Z,12.80
2017-08-10T08:59:15.619Z,11.93
2017-08-10T09:01:43.137Z,11.83
2017-08-10T09:04:10.680Z,10.83
2017-08-10T09:06:38.327Z,12.17
2017-08-10T09:09:05.854Z,11.67
2017-08-10T09:11:33.428Z,12.17
2017-08-10T09:14:00.997Z,12.23
2017-08-10T09:16:28.554Z,11.20
2017-08-10T09:18:56.098Z,12.30
2017-08-10T09:21:23.626Z,10.57
2017-08-10T09:23:51.947Z,10.23
2017-08-10T09:26:19.502Z,9.93
2017-08-10T09:28:47.029Z,11.10
2017-08-10T09:31:14.562Z,10.37
2017-08-10T09:33:42.114Z,12.03
2017-08-10T09:36:09.667Z,10.40
2017-08-10T09:38:37.203Z,10.97
2017-08-10T09:41:04.745Z,10.90
2017-08-10T09:43:32.323Z,10.30
2017-08-10T09:45:59.931Z,11.03
2017-08-10T09:48:28.243Z,11.23
2017-08-10T09:50:55.785Z,12.53
2017-08-10T09:53:23.317Z,12.00
2017-08-10T09:55:50.949Z,10.80
2017-08-10T09:58:18.483Z,12.83
2017-08-10T10:00:46.066Z,11.63
2017-08-10T10:03:13.728Z,11.50
2017-08-10T10:05:41.281Z,11.93
2017-08-10T10:08:08.816Z,12.10
2017-08-10T10:10:36.404Z,11.53
2017-08-10T10:13:03.962Z,11.70
2017-08-10T10:15:31.516Z,12.53
2017-08-10T10:17:59.062Z,11.83
2017-08-10T10:20:26.594Z,13.50
2017-08-10T10:22:54.898Z,11.30
2017-08-10T10:25:22.442Z,12.13
2017-08-10T10:27:50.034Z,11.40
2017-08-10T10:30:17.693Z,11.80
2017-08-10T10:32:45.353Z,12.37
2017-08-10T10:35:12.886Z,12.30
2017-08-10T10:37:40.481Z,11.97
2017-08-10T10:40:08.136Z,12.43
2017-08-10T10:42:35.802Z,11.67
2017-08-10T10:45:03.331Z,12.30
2017-08-10T10:47:30.917Z,10.60
2017-08-10T10:49:58.479Z,11.63
2017-08-10T10:52:26.010Z,12.80
2017-08-10T10:54:53.557Z,12.83
2017-08-10T10:57:21.857Z,11.60
2017-08-10T10:59:49.391Z,12.20
2017-08-10T11:02:17.715Z,12.17
2017-08-10T11:04:45.376Z,12.17
2017-08-10T11:07:12.901Z,12.50
2017-08-10T11:09:40.498Z,11.57
2017-08-10T11:12:08.024Z,12.20
2017-08-10T11:14:35.603Z,12.63
2017-08-10T11:17:03.305Z,11.50
2017-08-10T11:19:30.832Z,11.00
2017-08-10T11:21:58.402Z,11.90
2017-08-10T11:24:25.954Z,11.40
2017-08-10T11:26:53.530Z,11.57
2017-08-10T11:29:21.078Z,12.80
2017-08-10T11:31:48.638Z,10.30
2017-08-10T11:34:16.209Z,10.63
2017-08-10T11:36:43.749Z,10.20
2017-08-10T11:39:11.289Z,11.43
2017-08-10T11:41:38.819Z,11.80
2017-08-10T11:44:07.250Z,11.40
2017-08-10T11:46:34.810Z,11.73
2017-08-10T11:49:02.341Z,11.53
2017-08-10T11:51:29.873Z,11.60
2017-08-10T11:53:57.422Z,13.20
2017-08-10T11:56:24.957Z,14.03
2017-08-10T11:58:52.493Z,13.90
2017-08-10T12:01:20.037Z,14.00
2017-08-10T12:03:47.571Z,14.10
2017-08-10T12:06:15.101Z,13.60
2017-08-10T12:08:42.654Z,14.73
2017-08-10T12:11:10.177Z,14.47
2017-08-10T12:13:37.704Z,13.43
2017-08-10T12:16:05.329Z,12.60
2017-08-10T12:18:32.880Z,13.43
2017-08-10T12:21:00.540Z,14.50
2017-08-10T12:23:28.086Z,14.53
2017-08-10T12:25:55.650Z,13.80
2017-08-10T12:28:23.188Z,15.27
2017-08-10T12:30:51.502Z,13.83
2017-08-10T12:33:19.073Z,15.27
2017-08-10T12:35:46.602Z,16.63
2017-08-10T12:38:14.154Z,13.77
2017-08-10T12:40:41.694Z,15.90
2017-08-10T12:43:09.993Z,17.27
2017-08-10T12:45:37.549Z,14.30
2017-08-10T12:48:05.133Z,13.93
2017-08-10T12:50:32.669Z,14.47
2017-08-10T12:53:00.267Z,14.50
2017-08-10T12:55:27.913Z,16.17
2017-08-10T12:57:55.459Z,16.10
2017-08-10T13:00:23.010Z,16.63
2017-08-10T13:02:50.555Z,13.93
2017-08-10T13:05:18.893Z,14.00
2017-08-10T13:07:46.455Z,14.30
2017-08-10T13:10:13.982Z,14.73
2017-08-10T13:12:41.502Z,15.03
2017-08-10T13:15:10.773Z,13.57
2017-08-10T13:17:38.411Z,13.20
2017-08-10T13:20:05.995Z,13.07
2017-08-10T13:22:33.542Z,13.10
2017-08-10T13:25:01.067Z,13.70
2017-08-10T13:27:28.604Z,15.33
2017-08-10T13:29:56.928Z,15.03
2017-08-10T13:32:24.452Z,15.33
2017-08-10T13:34:52.776Z,15.10
2017-08-10T13:37:20.320Z,14.20
2017-08-10T13:39:47.854Z,15.60
2017-08-10T13:42:15.392Z,15.80
2017-08-10T13:44:43.726Z,14.70
2017-08-10T13:47:11.258Z,14.73
2017-08-10T13:49:38.786Z,15.00
2017-08-10T13:52:07.116Z,14.03
2017-08-10T13:54:34.645Z,16.80
2017-08-10T13:57:02.170Z,15.80
2017-08-10T13:59:29.725Z,14.90
2017-08-10T14:01:57.251Z,14.97
2017-08-10T14:04:24.809Z,15.80
2017-08-10T14:06:52.370Z,15.23
2017-08-10T14:09:19.929Z,16.03
2017-08-10T14:11:47.457Z,16.73
2017-08-10T14:14:15.009Z,16.63
2017-08-10T14:16:43.325Z,14.83
2017-08-10T14:19:10.885Z,15.20
2017-08-10T14:21:38.445Z,16.30
2017-08-10T14:24:05.977Z,15.87
2017-08-10T14:26:33.510Z,16.30
2017-08-10T14:29:01.058Z,16.47
2017-08-10T14:31:28.590Z,18.13
2017-08-10T14:33:56.142Z,15.90
2017-08-10T14:36:23.702Z,17.57
2017-08-10T14:38:51.266Z,16.23
2017-08-10T14:41:18.825Z,17.50
2017-08-10T14:43:46.393Z,15.60
2017-08-10T14:46:13.940Z,15.93
2017-08-10T14:48:41.467Z,17.23
2017-08-10T14:51:09.010Z,17.87
2017-08-10T14:53:37.317Z,18.73
2017-08-10T14:56:04.910Z,16.87
2017-08-10T14:58:32.569Z,15.10
2017-08-10T15:01:00.232Z,18.03
2017-08-10T15:03:27.786Z,15.70
2017-08-10T15:05:55.329Z,16.50
2017-08-10T15:08:22.853Z,20.27
2017-08-10T15:10:51.149Z,17.83
2017-08-10T15:13:18.689Z,16.87
2017-08-10T15:15:46.993Z,17.80
2017-08-10T15:18:14.531Z,18.13
2017-08-10T15:20:42.853Z,18.73
2017-08-10T15:23:10.610Z,19.50
2017-08-10T15:25:38.176Z,20.47
2017-08-10T15:28:05.734Z,20.53
2017-08-10T15:30:33.276Z,20.47
2017-08-10T15:33:00.806Z,17.93
2017-08-10T15:35:29.228Z,18.60
2017-08-10T15:37:56.754Z,17.37
2017-08-10T15:40:25.050Z,17.20
2017-08-10T15:42:52.606Z,16.90
2017-08-10T15:45:20.186Z,16.70
2017-08-10T15:47:47.746Z,17.67
2017-08-10T15:50:15.329Z,18.03
2017-08-10T15:52:42.878Z,16.20
2017-08-10T15:55:10.598Z,17.10
2017-08-10T15:57:38.154Z,16.97
2017-08-10T16:00:05.690Z,18.67
2017-08-10T16:02:33.221Z,18.13
2017-08-10T16:05:00.865Z,18.50
2017-08-10T16:07:28.421Z,20.27
2017-08-10T16:09:55.945Z,17.90
2017-08-10T16:12:24.257Z,17.67
2017-08-10T16:14:51.825Z,19.43
2017-08-10T16:17:19.353Z,18.90
2017-08-10T16:19:46.913Z,20.50
2017-08-10T16:22:14.441Z,21.50
2017-08-10T16:24:41.978Z,20.33
2017-08-10T16:27:09.863Z,21.53
2017-08-10T16:29:37.404Z,23.37
2017-08-10T16:32:04.942Z,23.70
2017-08-10T16:34:32.605Z,22.60
2017-08-10T16:37:00.162Z,23.50
2017-08-10T16:39:27.706Z,22.67
2017-08-10T16:41:55.343Z,21.77
2017-08-10T16:44:23.646Z,22.73
2017-08-10T16:46:51.222Z,21.30
2017-08-10T16:49:18.879Z,21.50
2017-08-10T16:51:46.409Z,20.60
2017-08-10T16:54:14.010Z,21.63
2017-08-10T16:56:41.556Z,19.80
2017-08-10T16:59:09.089Z,20.60
2017-08-10T17:01:36.632Z,17.40
2017-08-10T17:04:04.189Z,14.77
2017-08-10T17:06:32.485Z,15.93
2017-08-10T17:09:00.025Z,14.53
2017-08-10T17:11:28.349Z,15.73
2017-08-10T17:13:55.917Z,15.17
2017-08-10T17:16:23.450Z,15.20
2017-08-10T17:18:50.997Z,13.37
2017-08-10T17:21:18.533Z,13.23
2017-08-10T17:23:46.061Z,13.50
2017-08-10T17:26:13.710Z,13.50
2017-08-10T17:28:41.229Z,12.67
2017-08-10T17:31:09.531Z,11.90
2017-08-10T17:33:37.105Z,11.43
2017-08-10T17:36:04.661Z,11.30
2017-08-10T17:38:32.218Z,12.30
2017-08-10T17:40:59.768Z,12.17
2017-08-10T17:43:27.299Z,13.47
2017-08-10T17:45:55.582Z,13.30
2017-08-10T17:48:24.025Z,15.20
2017-08-10T17:50:51.550Z,16.17
2017-08-10T17:53:19.085Z,17.40
2017-08-10T17:55:47.403Z,17.97
2017-08-10T17:58:14.942Z,17.07
2017-08-10T18:00:42.470Z,17.97
2017-08-10T18:03:10.909Z,19.70
2017-08-10T18:05:38.437Z,20.67
2017-08-10T18:08:06.016Z,23.40
2017-08-10T18:10:33.569Z,27.40
2017-08-10T18:13:01.129Z,27.57
2017-08-10T18:15:28.653Z,27.80
2017-08-10T18:17:57.065Z,25.70
2017-08-10T18:20:24.592Z,23.40
2017-08-10T18:22:52.900Z,23.90
2017-08-10T18:25:20.458Z,21.40
2017-08-10T18:27:48.026Z,19.00
2017-08-10T18:30:15.561Z,18.47
2017-08-10T18:32:43.143Z,18.43
2017-08-10T18:35:10.674Z,18.37
2017-08-10T18:37:38.219Z,21.37
2017-08-10T18:40:06.534Z,20.20
2017-08-10T18:42:34.130Z,20.03
2017-08-10T18:45:01.690Z,18.03
2017-08-10T18:47:29.244Z,18.80
2017-08-10T18:49:56.877Z,15.63
2017-08-10T18:52:24.432Z,14.50
2017-08-10T18:54:51.997Z,13.50
2017-08-10T18:57:19.621Z,12.93
2017-08-10T18:59:47.397Z,11.20
2017-08-10T19:02:14.957Z,10.07
2017-08-10T19:04:42.597Z,10.27
2017-08-10T19:07:10.213Z,8.40
2017-08-10T19:09:37.961Z,8.50
2017-08-10T19:12:05.533Z,6.23
2017-08-10T19:14:33.058Z,6.00
2017-08-10T19:17:00.613Z,5.83
2017-08-10T19:19:28.221Z,5.03
2017-08-10T19:21:56.073Z,6.30
2017-08-10T19:24:23.625Z,7.50
2017-08-10T19:26:51.140Z,8.90
2017-08-10T19:29:19.462Z,9.20
2017-08-10T19:31:47.008Z,8.40
2017-08-10T19:34:14.588Z,10.20
2017-08-10T19:36:42.123Z,12.20
2017-08-10T19:39:09.663Z,10.03
2017-08-10T19:41:37.202Z,11.03
2017-08-10T19:44:04.870Z,10.70
2017-08-10T19:46:33.183Z,10.50
2017-08-10T19:49:00.758Z,12.27
2017-08-10T19:51:28.286Z,8.27
2017-08-10T19:53:55.886Z,10.60
2017-08-10T19:56:23.431Z,9.50
2017-08-10T19:58:50.955Z,10.43
2017-08-10T20:01:18.577Z,10.13
2017-08-10T20:03:46.747Z,7.93
2017-08-10T20:06:14.397Z,7.50
2017-08-10T20:08:42.151Z,7.73
2017-08-10T20:11:09.917Z,7.90
2017-08-10T20:13:37.474Z,8.67
2017-08-10T20:16:05.093Z,8.60
2017-08-10T20:18:32.649Z,8.03
2017-08-10T20:21:00.969Z,9.27
2017-08-10T20:23:28.509Z,9.20
2017-08-10T20:25:56.039Z,10.20
2017-08-10T20:28:23.553Z,8.83
2017-08-10T20:30:51.105Z,8.20
2017-08-10T20:33:18.618Z,6.50
2017-08-10T20:35:46.904Z,6.53
2017-08-10T20:38:15.219Z,7.27
2017-08-10T20:40:42.736Z,7.17
2017-08-10T20:43:11.154Z,7.80
2017-08-10T20:45:38.716Z,8.83
2017-08-10T20:48:06.247Z,9.57
2017-08-10T20:50:34.402Z,10.37
2017-08-10T20:53:02.780Z,12.43
2017-08-10T20:55:31.074Z,13.30
2017-08-10T20:57:58.608Z,12.93
2017-08-10T21:00:26.268Z,13.43
2017-08-10T21:02:53.898Z,14.17
2017-08-10T21:05:21.453Z,14.90
2017-08-10T21:07:49.207Z,13.90
2017-08-10T21:10:16.778Z,13.90
2017-08-10T21:12:44.325Z,14.33
2017-08-10T21:15:11.874Z,12.90
2017-08-10T21:17:39.406Z,12.10
2017-08-10T21:20:07.730Z,11.90
2017-08-10T21:22:35.385Z,12.30
2017-08-10T21:25:02.913Z,11.53
2017-08-10T21:27:31.205Z,11.33
2017-08-10T21:29:58.783Z,12.30
2017-08-10T21:32:26.441Z,11.50
2017-08-10T21:34:54.104Z,11.40
2017-08-10T21:37:21.654Z,10.80
2017-08-10T21:39:49.176Z,11.37
2017-08-10T21:42:17.503Z,10.43
2017-08-10T21:44:45.166Z,10.27
2017-08-10T21:47:12.734Z,12.63
2017-08-10T21:49:40.280Z,9.63
2017-08-10T21:52:07.856Z,11.20
2017-08-10T21:54:35.380Z,11.20
2017-08-10T21:57:02.911Z,12.00
2017-08-10T21:59:31.236Z,10.90
2017-08-10T22:01:58.898Z,10.77
2017-08-10T22:04:26.426Z,10.90
2017-08-10T22:06:54.745Z,12.53
2017-08-10T22:09:22.302Z,11.67
2017-08-10T22:11:49.829Z,12.30
2017-08-10T22:14:17.422Z,12.53
2017-08-10T22:16:44.959Z,11.97
2017-08-10T22:19:12.485Z,13.30
2017-08-10T22:21:40.849Z,13.37
2017-08-10T22:24:08.384Z,13.70
2017-08-10T22:26:35.929Z,13.17
2017-08-10T22:29:03.491Z,12.97
2017-08-10T22:31:31.052Z,16.10
2017-08-10T22:33:58.613Z,13.90
2017-08-10T22:36:26.164Z,14.10
2017-08-10T22:38:53.695Z,12.80
2017-08-10T22:41:21.986Z,13.70
2017-08-10T22:43:49.766Z,13.70
2017-08-10T22:46:17.326Z,14.30
2017-08-10T22:48:44.853Z,13.73
2017-08-10T22:51:13.163Z,12.90
2017-08-10T22:53:40.699Z,13.73
2017-08-10T22:56:08.230Z,14.70
2017-08-10T22:58:35.942Z,15.67
2017-08-10T23:01:03.478Z,12.73
2017-08-10T23:03:31.066Z,14.00
2017-08-10T23:05:58.618Z,14.10
2017-08-10T23:08:26.186Z,13.03
2017-08-10T23:10:53.842Z,14.40
2017-08-10T23:13:21.405Z,13.53
2017-08-10T23:15:48.962Z,13.30
2017-08-10T23:18:16.529Z,13.13
2017-08-10T23:20:44.087Z,14.80
2017-08-10T23:23:11.741Z,14.87
2017-08-10T23:25:39.265Z,15.50
2017-08-10T23:28:07.680Z,15.70
2017-08-10T23:30:35.261Z,14.90
2017-08-10T23:33:02.785Z,15.23
2017-08-10T23:35:30.329Z,16.03
2017-08-10T23:37:59.647Z,16.87
2017-08-10T23:40:27.172Z,16.90
2017-08-10T23:42:55.497Z,16.43
2017-08-10T23:45:23.071Z,16.63
2017-08-10T23:47:50.597Z,17.70
2017-08-10T23:50:18.136Z,18.07
2017-08-10T23:52:46.542Z,17.60
2017-08-10T23:55:14.118Z,17.43
2017-08-10T23:57:41.679Z,16.60
